Time;durP1;ratioP1;P1;durP2;ratioP2;P2;SDS_P1;SDS_P2;PMS_P1;PMS_P2;Temp;Humidity;BMP_temperature;BMP_pressure;BME280_temperature;BME280_humidity;BME280_pressure;Samples;Min_cycle;Max_cycle;Signal;HPM_P1;HPM_P2
2020/12/23 00:01:09;;;;;;;6.53;5.53;;;15.70;99.90;;;;;;5095251;28;20468;-85
2020/12/23 00:03:36;;;;;;;6.30;5.70;;;15.70;99.90;;;;;;5095551;28;20436;-85
2020/12/23 00:06:02;;;;;;;6.85;5.65;;;15.70;99.90;;;;;;5095708;28;20439;-85
2020/12/23 00:08:28;;;;;;;6.60;4.80;;;15.70;99.90;;;;;;5095214;28;20204;-86
2020/12/23 00:10:57;;;;;;;5.25;4.75;;;15.70;99.90;;;;;;5095519;28;20440;-84
2020/12/23 00:13:23;;;;;;;7.80;6.57;;;15.70;99.90;;;;;;5094994;28;20197;-85
2020/12/23 00:15:49;;;;;;;7.77;7.00;;;15.70;99.90;;;;;;5095104;28;20214;-85
2020/12/23 00:18:16;;;;;;;8.23;5.90;;;15.80;99.90;;;;;;5095133;28;20440;-85
2020/12/23 00:20:42;;;;;;;7.30;6.60;;;15.80;99.90;;;;;;5095027;28;20301;-85
2020/12/23 00:23:08;;;;;;;8.67;5.57;;;15.90;99.90;;;;;;5094831;28;20213;-84
2020/12/23 00:25:35;;;;;;;6.13;5.47;;;15.70;99.90;;;;;;5094774;28;20436;-85
2020/12/23 00:28:02;;;;;;;8.70;5.45;;;15.70;99.90;;;;;;5095195;28;20439;-85
2020/12/23 00:30:28;;;;;;;7.10;6.37;;;15.60;99.90;;;;;;5094702;28;20218;-85
2020/12/23 00:32:54;;;;;;;8.13;5.90;;;15.70;99.90;;;;;;5094693;28;20857;-85
2020/12/23 00:35:20;;;;;;;14.73;7.47;;;15.80;99.90;;;;;;5094490;28;20439;-85
2020/12/23 00:37:47;;;;;;;6.23;5.47;;;15.70;99.90;;;;;;5094679;28;20432;-85
2020/12/23 00:40:13;;;;;;;5.80;5.30;;;15.80;99.90;;;;;;5094403;28;20446;-85
2020/12/23 00:42:39;;;;;;;9.60;6.33;;;15.80;99.90;;;;;;5094401;28;20436;-85
2020/12/23 00:45:06;;;;;;;7.13;5.67;;;15.80;99.90;;;;;;5094570;28;20799;-85
2020/12/23 00:47:32;;;;;;;6.53;5.70;;;15.80;99.90;;;;;;5094670;28;20789;-85
2020/12/23 00:49:59;;;;;;;7.70;6.30;;;15.90;99.90;;;;;;5094343;28;20204;-85
2020/12/23 00:52:25;;;;;;;7.20;6.40;;;15.80;99.90;;;;;;5093825;28;20447;-85
2020/12/23 00:54:51;;;;;;;10.85;7.28;;;15.90;99.90;;;;;;5094305;28;20198;-85
2020/12/23 00:57:17;;;;;;;7.37;6.37;;;15.90;99.90;;;;;;5094098;28;20238;-85
2020/12/23 00:59:43;;;;;;;11.03;6.50;;;16.00;99.90;;;;;;5094392;28;20463;-85
2020/12/23 01:02:11;;;;;;;7.03;5.70;;;15.80;99.90;;;;;;5094051;28;20444;-85
2020/12/23 01:04:37;;;;;;;6.93;6.15;;;15.90;99.90;;;;;;5094165;28;20436;-85
2020/12/23 01:07:03;;;;;;;7.07;6.30;;;15.90;99.90;;;;;;5094477;28;20209;-85
2020/12/23 01:09:29;;;;;;;8.70;7.80;;;16.00;99.90;;;;;;5094005;28;20439;-85
2020/12/23 01:11:55;;;;;;;6.27;5.67;;;15.90;99.90;;;;;;5093796;28;20493;-85
2020/12/23 01:14:21;;;;;;;7.13;5.55;;;15.90;99.90;;;;;;5094186;28;20436;-85
2020/12/23 01:16:48;;;;;;;8.30;6.50;;;15.90;99.90;;;;;;5093748;28;20696;-85
2020/12/23 01:19:15;;;;;;;9.60;5.77;;;15.90;99.90;;;;;;5094068;28;20489;-85
2020/12/23 01:21:43;;;;;;;7.15;6.45;;;15.80;99.90;;;;;;5093990;28;20489;-84
2020/12/23 01:24:09;;;;;;;10.60;8.23;;;15.80;99.90;;;;;;5093851;28;20198;-85
2020/12/23 01:26:36;;;;;;;8.73;7.53;;;15.90;99.90;;;;;;5093815;28;20493;-85
2020/12/23 01:29:02;;;;;;;8.83;7.80;;;15.80;99.90;;;;;;5093680;28;20443;-85
2020/12/23 01:31:28;;;;;;;8.27;7.40;;;15.90;99.90;;;;;;5093800;28;20440;-85
2020/12/23 01:33:54;;;;;;;9.03;7.10;;;15.80;99.90;;;;;;5093582;28;20493;-85
2020/12/23 01:36:21;;;;;;;7.67;6.40;;;15.90;99.90;;;;;;5093775;28;20487;-85
2020/12/23 01:38:47;;;;;;;8.60;6.53;;;15.90;99.90;;;;;;5093598;28;20801;-85
2020/12/23 01:41:14;;;;;;;9.50;7.10;;;15.90;99.90;;;;;;5093400;28;20439;-85
2020/12/23 01:43:41;;;;;;;7.53;6.50;;;15.90;99.90;;;;;;5093639;28;20440;-85
2020/12/23 01:46:07;;;;;;;7.93;6.87;;;15.90;99.90;;;;;;5093388;28;20454;-85
2020/12/23 01:48:35;;;;;;;6.70;5.90;;;15.90;99.90;;;;;;5093571;28;20443;-85
2020/12/23 01:51:02;;;;;;;9.00;7.07;;;15.90;99.90;;;;;;5093633;28;20443;-85
2020/12/23 01:53:29;;;;;;;9.60;7.60;;;15.80;99.90;;;;;;5093508;28;20889;-85
2020/12/23 01:55:57;;;;;;;9.20;7.87;;;15.90;99.90;;;;;;5093453;28;20475;-85
2020/12/23 01:58:24;;;;;;;11.20;7.00;;;16.00;99.90;;;;;;5093957;28;20440;-85
2020/12/23 02:00:50;;;;;;;8.17;7.20;;;15.90;99.90;;;;;;5093434;28;20455;-85
2020/12/23 02:03:20;;;;;;;10.90;7.67;;;16.00;99.90;;;;;;5093431;28;20485;-85
2020/12/23 02:05:47;;;;;;;9.83;7.63;;;16.00;99.90;;;;;;5096909;28;20953;-84
2020/12/23 02:08:13;;;;;;;11.07;7.30;;;15.90;99.90;;;;;;5097724;28;20431;-85
2020/12/23 02:10:40;;;;;;;10.37;7.70;;;15.90;99.90;;;;;;5097097;28;20946;-85
2020/12/23 02:13:09;;;;;;;9.73;8.77;;;15.90;99.90;;;;;;5097565;28;20435;-85
2020/12/23 02:15:35;;;;;;;11.60;8.17;;;15.90;99.90;;;;;;5097245;28;20439;-85
2020/12/23 02:18:01;;;;;;;13.23;8.50;;;15.90;99.90;;;;;;5097377;28;20435;-84
2020/12/23 02:20:27;;;;;;;10.23;7.77;;;16.00;99.90;;;;;;5097323;28;20435;-85
2020/12/23 02:22:54;;;;;;;8.47;7.57;;;15.90;99.90;;;;;;5097451;28;20435;-85
2020/12/23 02:25:20;;;;;;;8.77;7.97;;;15.90;99.90;;;;;;5097293;28;20439;-85
2020/12/23 02:27:46;;;;;;;13.60;9.00;;;16.00;99.90;;;;;;5097180;28;20435;-85
2020/12/23 02:30:13;;;;;;;12.27;9.27;;;16.00;99.90;;;;;;5096850;28;20467;-85
2020/12/23 02:32:39;;;;;;;10.20;8.17;;;16.20;99.90;;;;;;5096894;28;20432;-85
2020/12/23 02:35:07;;;;;;;11.90;9.20;;;16.00;99.90;;;;;;5097045;28;20436;-85
2020/12/23 02:37:33;;;;;;;11.93;9.67;;;16.00;99.90;;;;;;5096959;28;20483;-85
2020/12/23 02:40:01;;;;;;;11.87;9.87;;;16.00;99.90;;;;;;5096958;28;20447;-85
2020/12/23 02:42:27;;;;;;;11.83;9.57;;;16.00;99.90;;;;;;5096688;28;20811;-85
2020/12/23 02:44:56;;;;;;;12.33;9.27;;;16.00;99.90;;;;;;5096909;28;20540;-85
2020/12/23 02:47:22;;;;;;;12.30;8.40;;;15.90;99.90;;;;;;5096827;28;20439;-85
2020/12/23 02:49:49;;;;;;;11.20;8.43;;;15.90;99.90;;;;;;5096643;28;20463;-85
2020/12/23 02:52:15;;;;;;;13.97;8.13;;;15.80;99.90;;;;;;5096785;28;20434;-84
2020/12/23 02:54:41;;;;;;;9.80;8.07;;;15.80;99.90;;;;;;5096900;28;20450;-85
2020/12/23 02:57:08;;;;;;;8.53;7.17;;;15.80;99.90;;;;;;5096379;28;20997;-85
2020/12/23 02:59:35;;;;;;;10.47;8.13;;;15.80;99.90;;;;;;5096689;28;20460;-84
2020/12/23 03:02:01;;;;;;;10.97;8.93;;;15.90;99.90;;;;;;5096524;28;20462;-85
2020/12/23 03:04:28;;;;;;;15.20;8.20;;;16.10;99.90;;;;;;5096346;28;20560;-85
2020/12/23 03:06:54;;;;;;;10.60;7.20;;;16.00;99.90;;;;;;5096458;28;20435;-85
2020/12/23 03:09:21;;;;;;;10.07;8.57;;;16.10;99.90;;;;;;5096347;28;20447;-85
2020/12/23 03:11:47;;;;;;;10.03;8.10;;;16.10;99.90;;;;;;5096304;28;20427;-85
2020/12/23 03:14:16;;;;;;;10.85;8.95;;;16.10;99.90;;;;;;5096441;28;20440;-85
2020/12/23 03:16:42;;;;;;;12.23;8.60;;;16.00;99.90;;;;;;5095428;28;20239;-85
2020/12/23 03:19:08;;;;;;;13.90;10.50;;;16.00;99.90;;;;;;5096268;28;20504;-85
2020/12/23 03:21:35;;;;;;;14.93;10.20;;;16.00;99.90;;;;;;5096086;28;20552;-85
2020/12/23 03:24:01;;;;;;;14.50;10.60;;;15.90;99.90;;;;;;5096111;28;20439;-85
2020/12/23 03:26:27;;;;;;;14.80;10.90;;;15.90;99.90;;;;;;5096312;28;20435;-85
2020/12/23 03:28:54;;;;;;;13.40;10.57;;;15.90;99.90;;;;;;5095903;28;20443;-85
2020/12/23 03:31:21;;;;;;;14.03;11.07;;;15.80;99.90;;;;;;5095726;28;20439;-85
2020/12/23 03:33:47;;;;;;;11.03;8.87;;;15.80;99.90;;;;;;5096031;28;20906;-85
2020/12/23 03:36:13;;;;;;;12.77;9.33;;;15.80;99.90;;;;;;5095782;28;20475;-85
2020/12/23 03:38:39;;;;;;;12.77;10.40;;;15.70;99.90;;;;;;5095880;28;20440;-84
2020/12/23 03:41:06;;;;;;;15.13;9.37;;;15.80;99.90;;;;;;5095653;28;20797;-85
2020/12/23 03:43:32;;;;;;;16.47;12.70;;;15.80;99.90;;;;;;5096106;28;20447;-85
2020/12/23 03:45:58;;;;;;;15.57;10.77;;;15.80;99.90;;;;;;5095840;28;20451;-85
2020/12/23 03:48:25;;;;;;;12.17;9.53;;;15.80;99.90;;;;;;5095545;28;20443;-85
2020/12/23 03:50:52;;;;;;;12.40;8.90;;;15.80;99.90;;;;;;5095483;28;20451;-86
2020/12/23 03:53:18;;;;;;;14.50;10.77;;;15.80;99.90;;;;;;5096087;28;20444;-85
2020/12/23 03:55:44;;;;;;;11.70;9.50;;;15.90;99.90;;;;;;5095451;28;20807;-85
2020/12/23 03:58:10;;;;;;;16.63;12.60;;;15.80;99.90;;;;;;5095671;28;20432;-85
2020/12/23 04:00:36;;;;;;;16.33;10.00;;;15.80;99.90;;;;;;5095649;28;20463;-85
2020/12/23 04:03:03;;;;;;;11.70;10.10;;;15.90;99.90;;;;;;5095706;28;20803;-84
2020/12/23 04:05:30;;;;;;;16.27;10.15;;;16.00;99.90;;;;;;5095297;28;20493;-85
2020/12/23 04:07:56;;;;;;;14.10;10.33;;;16.00;99.90;;;;;;5095348;28;20202;-85
2020/12/23 04:10:22;;;;;;;16.43;11.17;;;16.00;99.90;;;;;;5095472;28;20448;-85
2020/12/23 04:12:48;;;;;;;16.50;12.00;;;16.00;99.90;;;;;;5095317;28;20442;-85
2020/12/23 04:15:15;;;;;;;16.67;12.40;;;15.90;99.90;;;;;;5095038;28;20432;-85
2020/12/23 04:17:41;;;;;;;14.93;10.95;;;15.90;99.90;;;;;;5094990;28;20529;-85
2020/12/23 04:20:08;;;;;;;14.57;10.20;;;15.90;99.90;;;;;;5095210;28;20190;-85
2020/12/23 04:22:36;;;;;;;14.93;10.70;;;15.80;99.90;;;;;;5095190;28;20444;-85
2020/12/23 04:25:04;;;;;;;12.87;9.50;;;15.80;99.90;;;;;;5095157;28;20850;-85
2020/12/23 04:27:31;;;;;;;13.50;10.33;;;15.90;99.90;;;;;;5093993;28;20443;-85
2020/12/23 04:29:57;;;;;;;13.63;10.05;;;15.90;99.90;;;;;;5094783;28;20467;-85
2020/12/23 04:32:23;;;;;;;12.80;10.90;;;15.80;99.90;;;;;;5094848;28;20190;-84
2020/12/23 04:34:50;;;;;;;10.37;7.80;;;15.90;99.90;;;;;;5094763;28;20439;-85
2020/12/23 04:37:16;;;;;;;12.53;8.80;;;15.80;99.90;;;;;;5094518;28;20491;-85
2020/12/23 04:39:43;;;;;;;13.10;10.43;;;15.80;99.90;;;;;;5094842;28;20440;-85
2020/12/23 04:42:09;;;;;;;13.97;10.63;;;16.00;99.90;;;;;;5094461;28;20439;-85
2020/12/23 04:44:36;;;;;;;15.60;11.13;;;16.00;99.90;;;;;;5094597;28;20444;-85
2020/12/23 04:47:03;;;;;;;15.13;11.53;;;15.90;99.90;;;;;;5094436;28;20439;-85
2020/12/23 04:49:36;;;;;;;13.43;10.80;;;15.90;99.90;;;;;;5094551;28;20835;-85
2020/12/23 04:52:06;;;;;;;13.63;11.80;;;15.80;99.90;;;;;;5094707;28;20436;-85
2020/12/23 04:54:32;;;;;;;18.60;13.13;;;15.70;99.90;;;;;;5094164;28;20479;-85
2020/12/23 04:56:59;;;;;;;14.90;12.30;;;15.70;99.90;;;;;;5093051;28;20314;-85
2020/12/23 04:59:27;;;;;;;13.60;10.77;;;15.70;99.90;;;;;;5094229;28;20517;-85
2020/12/23 05:01:53;;;;;;;13.93;10.70;;;15.70;99.90;;;;;;5094377;28;20444;-85
2020/12/23 05:04:19;;;;;;;14.52;11.18;;;15.70;99.90;;;;;;5094378;28;20439;-85
2020/12/23 05:06:47;;;;;;;12.90;10.23;;;15.60;99.90;;;;;;5094375;28;20554;-85
2020/12/23 05:09:13;;;;;;;11.33;10.10;;;15.60;99.90;;;;;;5094240;28;20452;-85
2020/12/23 05:11:41;;;;;;;11.63;9.73;;;15.50;99.90;;;;;;5094186;28;20443;-86
2020/12/23 05:14:10;;;;;;;10.48;9.27;;;15.60;99.90;;;;;;5094155;28;20511;-86
2020/12/23 05:16:40;;;;;;;11.80;9.98;;;15.50;99.90;;;;;;5093883;28;20274;-85
2020/12/23 05:19:06;;;;;;;13.20;10.50;;;15.50;99.90;;;;;;5093986;28;20663;-85
2020/12/23 05:21:32;;;;;;;9.00;8.00;;;15.60;99.90;;;;;;5094165;28;20454;-86
2020/12/23 05:23:58;;;;;;;19.50;11.83;;;15.50;99.90;;;;;;5094225;28;20448;-85
2020/12/23 05:26:26;;;;;;;10.13;8.95;;;15.60;99.90;;;;;;5094049;28;20443;-85
2020/12/23 05:28:53;;;;;;;12.25;10.40;;;15.50;99.90;;;;;;5093826;28;20649;-85
2020/12/23 05:31:21;;;;;;;14.80;11.45;;;15.50;99.90;;;;;;5093548;28;20569;-85
2020/12/23 05:33:48;;;;;;;13.67;8.83;;;15.60;99.90;;;;;;5093873;28;20197;-85
2020/12/23 05:36:16;;;;;;;14.75;12.15;;;15.60;99.90;;;;;;5093696;28;20483;-85
2020/12/23 05:38:43;;;;;;;14.53;11.10;;;15.60;99.90;;;;;;5093639;28;20718;-86
2020/12/23 05:41:12;;;;;;;14.90;11.70;;;15.60;99.90;;;;;;5092221;28;20789;-87
2020/12/23 05:43:39;;;;;;;16.73;12.40;;;15.60;99.90;;;;;;5093593;28;20197;-87
2020/12/23 05:46:07;;;;;;;14.67;12.27;;;15.60;99.90;;;;;;5093558;28;20194;-86
2020/12/23 05:48:36;;;;;;;14.18;11.93;;;15.60;99.90;;;;;;5093793;28;20439;-86
2020/12/23 05:51:04;;;;;;;15.55;12.65;;;15.70;99.90;;;;;;5093776;28;20201;-86
2020/12/23 05:53:33;;;;;;;14.00;12.60;;;15.60;99.90;;;;;;5093654;28;20564;-86
2020/12/23 05:56:00;;;;;;;15.88;10.13;;;15.50;99.90;;;;;;5093240;28;20223;-86
2020/12/23 05:58:27;;;;;;;13.23;11.82;;;15.50;99.90;;;;;;5094313;28;20312;-86
2020/12/23 06:00:55;;;;;;;10.53;9.43;;;15.50;99.90;;;;;;5093456;28;20228;-86
2020/12/23 06:03:24;;;;;;;10.32;8.82;;;15.40;99.90;;;;;;5093580;28;20450;-86
2020/12/23 06:05:59;;;;;;;8.70;7.43;;;15.40;99.90;;;;;;5093487;28;20197;-86
2020/12/23 06:08:31;;;;;;;9.55;8.20;;;15.40;99.90;;;;;;5093519;28;20439;-86
2020/12/23 06:11:26;;;;;;;9.30;8.10;;;15.20;99.90;;;;;;5093570;28;20251;-86
2020/12/23 06:14:17;;;;;;;9.63;8.30;;;15.20;99.90;;;;;;5093379;28;20201;-86
2020/12/23 06:16:46;;;;;;;8.00;7.20;;;15.20;99.90;;;;;;5093315;28;20547;-86
2020/12/23 06:19:23;;;;;;;7.22;6.32;;;15.30;99.90;;;;;;5093271;28;20202;-86
2020/12/23 06:21:50;;;;;;;5.63;5.00;;;15.30;99.90;;;;;;5093520;28;20193;-86
2020/12/23 06:24:16;;;;;;;6.40;5.50;;;15.20;99.90;;;;;;5093477;28;20198;-86
2020/12/23 06:26:44;;;;;;;6.20;5.27;;;15.20;99.90;;;;;;5093925;28;20448;-85
2020/12/23 06:29:13;;;;;;;5.78;5.28;;;15.20;99.90;;;;;;5093407;28;20468;-86
2020/12/23 06:31:42;;;;;;;5.15;4.65;;;15.20;99.90;;;;;;5093260;28;20193;-85
2020/12/23 06:34:13;;;;;;;5.60;4.72;;;15.20;99.90;;;;;;5093279;28;20198;-86
2020/12/23 06:36:39;;;;;;;5.03;4.40;;;15.20;99.90;;;;;;5093237;28;20221;-86
2020/12/23 06:39:38;;;;;;;6.95;4.40;;;15.10;99.90;;;;;;5093015;28;20550;-85
2020/12/23 06:42:23;;;;;;;5.95;4.70;;;15.10;99.90;;;;;;5059196;28;20236;-85
2020/12/23 06:45:10;;;;;;;5.18;3.80;;;15.10;99.90;;;;;;5083664;28;20197;-85
2020/12/23 06:47:38;;;;;;;4.47;3.87;;;15.10;99.90;;;;;;5093150;28;20194;-85
2020/12/23 06:50:24;;;;;;;8.93;4.32;;;15.10;99.90;;;;;;5093001;28;20467;-85
2020/12/23 06:52:50;;;;;;;4.88;4.07;;;15.10;99.90;;;;;;5086074;28;20197;-85
2020/12/23 06:55:18;;;;;;;4.35;3.72;;;15.10;99.90;;;;;;5096903;28;20193;-85
2020/12/23 06:57:54;;;;;;;4.45;4.05;;;15.10;99.90;;;;;;5096496;28;20233;-85
2020/12/23 07:00:37;;;;;;;3.70;3.40;;;15.10;99.90;;;;;;5096698;28;20575;-85
2020/12/23 07:03:11;;;;;;;3.05;2.72;;;15.10;99.90;;;;;;5096561;28;20771;-85
2020/12/23 07:05:45;;;;;;;4.43;3.85;;;15.10;99.90;;;;;;5096820;28;20338;-85
2020/12/23 07:08:14;;;;;;;6.72;3.75;;;15.10;99.90;;;;;;5096572;28;20202;-85
2020/12/23 07:10:44;;;;;;;4.63;3.65;;;15.20;99.90;;;;;;5096495;28;20197;-84
2020/12/23 07:13:13;;;;;;;4.15;3.83;;;15.30;99.90;;;;;;5096617;28;20197;-85
2020/12/23 07:15:41;;;;;;;5.15;4.57;;;15.30;99.90;;;;;;5096402;28;20221;-85
2020/12/23 07:18:09;;;;;;;3.65;3.35;;;15.20;99.90;;;;;;5096181;28;20225;-84
2020/12/23 07:20:40;;;;;;;4.90;3.50;;;15.30;99.90;;;;;;5095930;28;20660;-83
2020/12/23 07:23:09;;;;;;;4.28;3.72;;;15.30;99.90;;;;;;5096188;28;20194;-81
2020/12/23 07:25:39;;;;;;;5.40;3.80;;;15.20;99.90;;;;;;5095973;28;20724;-81
2020/12/23 07:28:09;;;;;;;3.75;3.40;;;15.20;99.90;;;;;;5095848;28;20442;-82
2020/12/23 07:30:38;;;;;;;4.55;4.15;;;15.30;99.90;;;;;;5096117;28;20221;-83
2020/12/23 07:33:08;;;;;;;4.82;4.38;;;15.30;99.90;;;;;;5096024;28;20219;-83
2020/12/23 07:35:34;;;;;;;3.80;3.50;;;15.20;99.90;;;;;;5095319;28;20246;-82
2020/12/23 07:38:04;;;;;;;3.80;3.42;;;15.30;99.90;;;;;;5080306;28;20630;-83
2020/12/23 07:40:32;;;;;;;4.30;3.90;;;15.30;99.90;;;;;;5084081;28;20268;-82
2020/12/23 07:42:59;;;;;;;4.43;4.00;;;15.30;99.90;;;;;;5082644;28;20197;-84
2020/12/23 07:45:28;;;;;;;4.60;4.20;;;15.30;99.90;;;;;;5094013;28;20318;-83
2020/12/23 07:47:56;;;;;;;4.75;4.03;;;15.30;99.90;;;;;;5095042;28;20604;-82
2020/12/23 07:50:23;;;;;;;3.72;3.42;;;15.30;99.90;;;;;;5094615;28;20197;-80
2020/12/23 07:52:49;;;;;;;3.97;3.67;;;15.30;99.90;;;;;;5094884;28;20671;-80
2020/12/23 07:55:17;;;;;;;9.30;3.83;;;15.30;99.90;;;;;;5094490;28;20189;-80
2020/12/23 07:57:43;;;;;;;6.60;3.30;;;15.30;99.90;;;;;;5094630;28;20237;-81
2020/12/23 08:00:11;;;;;;;3.63;3.33;;;15.30;99.90;;;;;;5094575;28;20463;-80
2020/12/23 08:02:38;;;;;;;4.18;3.78;;;15.30;99.90;;;;;;5093435;28;20432;-80
2020/12/23 08:05:06;;;;;;;3.20;3.00;;;15.40;99.90;;;;;;5094577;28;20193;-84
2020/12/23 08:07:32;;;;;;;3.92;3.63;;;15.40;99.90;;;;;;5094737;28;20435;-82
2020/12/23 08:10:07;;;;;;;6.40;3.83;;;15.40;99.90;;;;;;5094894;28;20201;-83
2020/12/23 08:12:34;;;;;;;3.38;2.85;;;15.30;99.90;;;;;;5094675;28;20189;-84
2020/12/23 08:15:00;;;;;;;3.90;3.00;;;15.30;99.90;;;;;;5094160;28;20586;-84
2020/12/23 08:17:26;;;;;;;3.77;3.47;;;15.40;99.90;;;;;;5073177;28;20676;-83
2020/12/23 08:20:08;;;;;;;3.30;3.00;;;15.40;99.90;;;;;;5074240;28;20441;-84
2020/12/23 08:22:35;;;;;;;3.65;3.03;;;15.40;99.90;;;;;;5074312;28;20204;-86
2020/12/23 08:25:10;;;;;;;4.38;3.60;;;15.40;99.90;;;;;;5073896;28;20198;-82
2020/12/23 08:27:38;;;;;;;4.35;3.40;;;15.50;99.90;;;;;;5073890;28;20194;-82
2020/12/23 08:30:07;;;;;;;4.68;3.33;;;15.60;99.90;;;;;;5073708;28;20218;-83
2020/12/23 08:32:36;;;;;;;3.42;2.97;;;15.50;99.90;;;;;;5085603;28;20216;-84
2020/12/23 08:35:05;;;;;;;4.13;3.83;;;15.50;99.90;;;;;;5090545;28;20209;-82
2020/12/23 08:37:34;;;;;;;4.40;3.05;;;15.50;99.90;;;;;;5076377;28;20234;-81
2020/12/23 08:40:01;;;;;;;3.58;3.28;;;15.50;99.90;;;;;;5073585;28;20206;-80
2020/12/23 08:42:27;;;;;;;3.60;3.25;;;15.50;99.90;;;;;;5073086;28;20665;-83
2020/12/23 08:44:55;;;;;;;4.57;4.07;;;15.50;99.90;;;;;;5087329;28;20205;-81
2020/12/23 08:47:27;;;;;;;3.88;3.45;;;15.50;99.90;;;;;;5093583;28;20197;-83
2020/12/23 08:49:54;;;;;;;3.42;2.40;;;15.50;99.90;;;;;;5094061;28;20198;-84
2020/12/23 08:52:23;;;;;;;3.80;2.55;;;15.50;99.90;;;;;;5092159;28;20193;-86
2020/12/23 08:54:50;;;;;;;3.75;2.60;;;15.40;99.90;;;;;;5085399;28;20274;-82
2020/12/23 08:57:22;;;;;;;2.80;2.60;;;15.40;99.90;;;;;;5073350;28;20871;-81
2020/12/23 08:59:48;;;;;;;3.00;2.47;;;15.50;99.90;;;;;;5073080;28;20625;-80
2020/12/23 09:02:16;;;;;;;2.80;2.60;;;15.50;99.90;;;;;;5081247;28;20656;-81
2020/12/23 09:04:43;;;;;;;3.22;2.42;;;15.40;99.90;;;;;;5084904;28;20721;-85
2020/12/23 09:07:10;;;;;;;2.85;2.30;;;15.50;99.90;;;;;;5093269;28;20229;-82
2020/12/23 09:09:37;;;;;;;4.78;2.85;;;15.40;99.90;;;;;;5093768;28;20602;-81
2020/12/23 09:12:04;;;;;;;3.63;2.95;;;15.40;99.90;;;;;;5093156;28;20198;-81
2020/12/23 09:14:32;;;;;;;4.13;2.53;;;15.50;99.90;;;;;;5091944;28;20201;-81
2020/12/23 09:17:07;;;;;;;2.10;1.90;;;15.40;99.90;;;;;;5093695;28;20714;-81
2020/12/23 09:19:50;;;;;;;2.70;2.20;;;15.50;99.90;;;;;;5093803;28;20532;-81
2020/12/23 09:22:31;;;;;;;2.50;2.30;;;15.50;99.90;;;;;;5093820;28;20201;-81
2020/12/23 09:25:32;;;;;;;2.23;1.93;;;15.50;99.90;;;;;;5093805;28;20209;-82
2020/12/23 09:28:06;;;;;;;2.23;1.90;;;15.50;99.90;;;;;;5093489;28;20470;-81
2020/12/23 09:30:38;;;;;;;2.78;2.10;;;15.50;99.90;;;;;;5093643;28;20443;-80
2020/12/23 09:33:05;;;;;;;2.55;1.80;;;15.40;99.90;;;;;;5093762;28;20288;-80
2020/12/23 09:35:31;;;;;;;1.70;1.60;;;15.50;99.90;;;;;;5093486;28;20194;-80
2020/12/23 09:38:05;;;;;;;1.80;1.65;;;15.40;99.90;;;;;;5093255;28;20483;-80
2020/12/23 09:40:33;;;;;;;4.80;1.75;;;15.50;99.90;;;;;;5093592;28;20208;-79
2020/12/23 09:42:59;;;;;;;1.63;1.52;;;15.50;99.90;;;;;;5093487;28;20227;-79
2020/12/23 09:45:25;;;;;;;2.65;1.55;;;15.50;99.90;;;;;;5093368;28;20189;-80
2020/12/23 09:47:52;;;;;;;1.83;1.53;;;15.50;99.90;;;;;;5093296;28;20209;-80
2020/12/23 09:50:18;;;;;;;1.80;1.70;;;15.60;99.90;;;;;;5081572;28;20452;-79
2020/12/23 09:52:44;;;;;;;3.40;1.90;;;15.60;99.90;;;;;;5088922;28;20649;-79
2020/12/23 09:55:11;;;;;;;2.05;1.85;;;15.60;99.90;;;;;;5093009;28;20447;-80
2020/12/23 09:57:38;;;;;;;2.07;1.60;;;15.50;99.90;;;;;;5092866;28;20631;-79
2020/12/23 10:00:07;;;;;;;1.40;1.30;;;15.60;99.90;;;;;;5093070;28;20455;-80
2020/12/23 10:02:33;;;;;;;2.17;1.73;;;15.60;99.90;;;;;;5088407;28;20519;-80
2020/12/23 10:04:59;;;;;;;2.00;1.60;;;15.70;99.90;;;;;;5092271;28;20447;-80
2020/12/23 10:07:25;;;;;;;2.30;2.00;;;15.80;99.90;;;;;;5092528;28;20537;-80
2020/12/23 10:09:52;;;;;;;1.90;1.80;;;15.80;99.90;;;;;;5092418;28;20443;-80
2020/12/23 10:12:20;;;;;;;2.50;2.30;;;15.90;99.90;;;;;;5092428;28;20479;-80
2020/12/23 10:14:47;;;;;;;1.80;1.60;;;15.90;99.90;;;;;;5092416;28;20194;-80
2020/12/23 10:17:13;;;;;;;5.00;1.50;;;16.00;99.90;;;;;;5088699;28;20483;-81
2020/12/23 10:19:40;;;;;;;3.87;1.90;;;16.00;99.90;;;;;;5073770;28;20460;-81
2020/12/23 10:22:06;;;;;;;2.67;1.60;;;16.00;99.90;;;;;;5081094;28;20446;-80
2020/12/23 10:24:32;;;;;;;1.57;1.47;;;16.00;99.90;;;;;;5091917;28;20493;-80
2020/12/23 10:26:58;;;;;;;1.47;1.37;;;16.00;99.90;;;;;;5087832;28;20447;-79
2020/12/23 10:29:25;;;;;;;2.00;1.60;;;16.10;99.90;;;;;;5089539;28;20821;-80
2020/12/23 10:31:52;;;;;;;1.67;1.40;;;16.10;99.90;;;;;;5095923;28;20440;-79
2020/12/23 10:34:18;;;;;;;1.47;1.37;;;16.10;99.90;;;;;;5077507;28;20452;-79
2020/12/23 10:36:47;;;;;;;3.00;1.30;;;16.10;99.90;;;;;;5095308;28;20479;-83
2020/12/23 10:39:13;;;;;;;1.53;1.20;;;16.10;99.90;;;;;;5096307;28;20431;-83
2020/12/23 10:41:40;;;;;;;1.97;1.40;;;16.10;99.90;;;;;;5096452;28;20816;-82
2020/12/23 10:44:06;;;;;;;1.80;1.70;;;16.10;99.90;;;;;;5089227;28;20463;-80
2020/12/23 10:46:32;;;;;;;2.27;1.10;;;16.10;99.90;;;;;;5095936;28;20815;-80
2020/12/23 10:48:59;;;;;;;1.98;1.55;;;16.00;99.90;;;;;;5096207;28;20435;-80
2020/12/23 10:51:25;;;;;;;1.40;1.30;;;16.00;99.90;;;;;;5085086;28;20311;-80
2020/12/23 10:53:52;;;;;;;4.57;1.33;;;16.00;99.90;;;;;;5079571;28;20593;-81
2020/12/23 10:56:18;;;;;;;11.20;2.93;;;16.00;99.90;;;;;;5075495;28;20530;-81
2020/12/23 10:58:44;;;;;;;1.40;1.00;;;16.00;99.90;;;;;;5090345;28;20479;-85
2020/12/23 11:01:10;;;;;;;12.03;8.53;;;16.00;99.90;;;;;;5077361;28;20522;-82
2020/12/23 11:03:36;;;;;;;2.47;2.00;;;16.00;99.90;;;;;;5076155;28;20440;-82
2020/12/23 11:06:03;;;;;;;13.00;7.20;;;16.00;99.90;;;;;;5075557;28;20448;-83
2020/12/23 11:08:30;;;;;;;1.50;1.40;;;16.10;99.90;;;;;;5075563;28;20440;-82
2020/12/23 11:10:56;;;;;;;2.00;1.53;;;16.10;99.90;;;;;;5075372;28;20449;-83
2020/12/23 11:13:22;;;;;;;1.30;0.90;;;16.00;99.90;;;;;;5075429;28;20449;-81
2020/12/23 11:15:48;;;;;;;1.50;1.30;;;16.00;99.90;;;;;;5075179;28;20494;-81
2020/12/23 11:18:14;;;;;;;1.70;1.23;;;16.00;99.90;;;;;;5075376;28;20484;-80
2020/12/23 11:20:41;;;;;;;1.33;1.23;;;16.10;99.90;;;;;;5075278;28;20463;-81
2020/12/23 11:23:08;;;;;;;2.00;1.37;;;16.10;99.90;;;;;;5075196;28;20497;-81
2020/12/23 11:25:34;;;;;;;1.70;1.30;;;16.10;99.90;;;;;;5075258;28;20800;-81
2020/12/23 11:28:00;;;;;;;1.70;1.50;;;16.20;99.90;;;;;;5075045;28;20464;-79
2020/12/23 11:30:26;;;;;;;1.50;1.40;;;16.20;99.90;;;;;;5074793;28;20447;-79
2020/12/23 11:32:53;;;;;;;1.95;1.63;;;16.20;99.90;;;;;;5074746;28;20448;-81
2020/12/23 11:35:19;;;;;;;2.17;1.93;;;16.30;99.90;;;;;;5074806;28;20202;-79
2020/12/23 11:37:45;;;;;;;1.50;1.40;;;16.30;99.90;;;;;;5074469;28;20492;-80
2020/12/23 11:40:12;;;;;;;6.37;1.60;;;16.40;99.90;;;;;;5074684;28;20425;-82
2020/12/23 11:42:42;;;;;;;2.87;1.70;;;16.40;99.90;;;;;;5074812;28;20451;-82
2020/12/23 11:45:09;;;;;;;1.60;1.50;;;16.40;99.90;;;;;;5080153;28;20514;-81
2020/12/23 11:47:36;;;;;;;4.10;1.77;;;16.40;99.90;;;;;;5074983;28;20448;-82
2020/12/23 11:50:04;;;;;;;1.47;1.37;;;16.40;99.90;;;;;;5074811;28;20449;-83
2020/12/23 11:52:30;;;;;;;1.83;1.30;;;16.40;99.90;;;;;;5075023;28;21000;-82
2020/12/23 11:54:56;;;;;;;3.43;1.20;;;16.40;99.90;;;;;;5074955;28;20445;-81
2020/12/23 11:57:23;;;;;;;2.03;1.40;;;16.40;99.90;;;;;;5075053;28;20850;-83
2020/12/23 11:59:49;;;;;;;1.47;1.37;;;16.30;99.90;;;;;;5091199;28;20459;-82
2020/12/23 12:02:15;;;;;;;2.43;1.40;;;16.30;99.90;;;;;;5094854;28;20446;-81
2020/12/23 12:04:42;;;;;;;1.70;1.60;;;16.30;99.90;;;;;;5094819;28;20450;-82
2020/12/23 12:07:08;;;;;;;1.37;1.20;;;16.30;99.90;;;;;;5094372;28;20504;-82
2020/12/23 12:09:34;;;;;;;3.05;1.63;;;16.30;99.90;;;;;;5094361;28;20455;-82
2020/12/23 12:12:00;;;;;;;2.00;1.30;;;16.30;99.90;;;;;;5094605;28;20201;-81
2020/12/23 12:14:27;;;;;;;1.70;1.20;;;16.20;99.90;;;;;;5092529;28;20443;-80
2020/12/23 12:16:54;;;;;;;1.95;1.55;;;16.30;99.90;;;;;;5081395;28;20484;-80
2020/12/23 12:19:20;;;;;;;2.03;1.10;;;16.20;99.90;;;;;;5074215;28;20201;-80
2020/12/23 12:21:46;;;;;;;2.40;1.47;;;16.10;99.90;;;;;;5088828;28;20451;-80
2020/12/23 12:24:12;;;;;;;3.33;1.10;;;16.10;99.90;;;;;;5094006;28;20504;-80
2020/12/23 12:26:39;;;;;;;1.43;1.00;;;16.10;99.90;;;;;;5094108;28;20444;-80
2020/12/23 12:29:05;;;;;;;1.10;1.00;;;16.10;99.90;;;;;;5094213;28;20467;-80
2020/12/23 12:31:32;;;;;;;2.97;2.70;;;16.00;99.90;;;;;;5094226;28;20687;-80
2020/12/23 12:33:58;;;;;;;1.23;0.90;;;15.90;99.90;;;;;;5093934;28;20448;-80
2020/12/23 12:36:25;;;;;;;1.10;0.90;;;15.80;99.90;;;;;;5093997;28;20906;-80
2020/12/23 12:38:52;;;;;;;3.30;1.53;;;15.70;99.90;;;;;;5093903;28;20483;-80
2020/12/23 12:41:26;;;;;;;3.80;1.33;;;15.60;99.90;;;;;;5094055;28;20446;-80
2020/12/23 12:43:52;;;;;;;2.30;1.20;;;15.70;99.90;;;;;;5093656;28;20973;-80
2020/12/23 12:46:19;;;;;;;1.60;1.30;;;15.60;99.90;;;;;;5093972;28;20513;-80